Time;durP1;ratioP1;P1;durP2;ratioP2;P2;SDS_P1;SDS_P2;PMS_P1;PMS_P2;Temp;Humidity;BMP_temperature;BMP_pressure;BME280_temperature;BME280_humidity;BME280_pressure;Samples;Min_cycle;Max_cycle;Signal;HPM_P1;HPM_P2
2022/02/18 00:01:00;;;;;;;38.67;6.57;;;5.00;99.90;;;;;;5034549;28;20022;-71
2022/02/18 00:03:27;;;;;;;41.28;4.72;;;4.90;99.90;;;;;;5034181;28;20112;-70
2022/02/18 00:05:53;;;;;;;47.22;5.75;;;4.90;99.90;;;;;;5034112;28;20555;-70
2022/02/18 00:08:20;;;;;;;53.67;6.00;;;4.90;99.90;;;;;;5034202;28;20473;-70
2022/02/18 00:10:46;;;;;;;61.88;7.32;;;4.90;99.90;;;;;;5034108;28;20067;-70
2022/02/18 00:13:12;;;;;;;43.00;5.82;;;4.90;99.90;;;;;;5034311;28;20029;-70
2022/02/18 00:15:38;;;;;;;36.78;6.28;;;4.80;99.90;;;;;;5034022;28;20022;-70
2022/02/18 00:18:05;;;;;;;54.85;9.18;;;4.80;99.90;;;;;;5033993;28;20389;-70
2022/02/18 00:20:32;;;;;;;34.25;6.93;;;4.80;99.90;;;;;;5033982;28;20029;-70
2022/02/18 00:23:00;;;;;;;52.15;6.75;;;4.80;99.90;;;;;;5033810;28;20030;-70
2022/02/18 00:25:26;;;;;;;48.55;6.38;;;4.80;99.90;;;;;;5034083;28;20428;-70
2022/02/18 00:27:51;;;;;;;41.78;5.53;;;4.80;99.90;;;;;;5034240;28;20033;-70
2022/02/18 00:30:17;;;;;;;52.28;6.22;;;4.90;99.90;;;;;;5033813;28;20052;-70
2022/02/18 00:32:43;;;;;;;37.33;5.68;;;4.80;99.90;;;;;;5033710;28;20079;-70
2022/02/18 00:35:08;;;;;;;55.13;6.50;;;4.80;99.90;;;;;;5033924;28;20466;-71
2022/02/18 00:37:34;;;;;;;47.83;6.20;;;4.80;99.90;;;;;;5033895;28;20022;-71
2022/02/18 00:40:00;;;;;;;43.97;5.53;;;4.90;99.90;;;;;;5033761;28;20105;-71
2022/02/18 00:42:26;;;;;;;49.05;6.22;;;4.80;99.90;;;;;;5033674;28;20071;-71
2022/02/18 00:44:52;;;;;;;55.38;6.60;;;4.90;99.90;;;;;;5033557;28;20025;-70
2022/02/18 00:47:18;;;;;;;50.35;6.65;;;4.80;99.90;;;;;;5033569;28;20036;-70
2022/02/18 00:49:44;;;;;;;47.20;6.22;;;4.90;99.90;;;;;;5033814;28;20079;-70
2022/02/18 00:52:10;;;;;;;51.10;5.60;;;4.80;99.90;;;;;;5033858;28;20049;-70
2022/02/18 00:54:36;;;;;;;51.10;6.90;;;4.90;99.90;;;;;;5033487;28;20025;-70
2022/02/18 00:57:02;;;;;;;39.65;6.15;;;4.90;99.90;;;;;;5032672;28;20401;-70
2022/02/18 00:59:27;;;;;;;45.63;7.82;;;5.00;99.90;;;;;;5033728;28;20033;-70
2022/02/18 01:01:53;;;;;;;44.65;5.07;;;4.90;99.90;;;;;;5033494;28;20439;-70
2022/02/18 01:04:19;;;;;;;56.97;8.27;;;4.90;99.90;;;;;;5033296;28;20559;-70
2022/02/18 01:06:44;;;;;;;44.53;6.55;;;4.80;99.90;;;;;;5033661;28;20026;-70
2022/02/18 01:09:10;;;;;;;50.58;6.45;;;4.80;99.90;;;;;;5033917;28;20116;-70
2022/02/18 01:11:36;;;;;;;54.17;6.65;;;4.80;99.90;;;;;;5033300;28;20033;-71
2022/02/18 01:14:02;;;;;;;59.10;6.32;;;4.80;99.90;;;;;;5033291;28;20044;-71
2022/02/18 01:16:28;;;;;;;43.30;6.45;;;4.80;99.90;;;;;;5034083;28;20420;-70
2022/02/18 01:18:54;;;;;;;65.32;8.35;;;4.80;99.90;;;;;;5033211;28;20083;-70
2022/02/18 01:21:20;;;;;;;49.22;5.97;;;4.80;99.90;;;;;;5033480;28;20037;-70
2022/02/18 01:23:47;;;;;;;64.45;9.30;;;4.70;99.90;;;;;;5033344;28;20025;-70
2022/02/18 01:26:12;;;;;;;50.65;6.20;;;4.70;99.90;;;;;;5033215;28;20054;-70
2022/02/18 01:28:38;;;;;;;43.70;5.95;;;4.80;99.90;;;;;;5033129;28;20060;-70
2022/02/18 01:31:04;;;;;;;43.65;6.18;;;4.70;99.90;;;;;;5033099;28;20033;-70
2022/02/18 01:33:29;;;;;;;42.03;5.57;;;4.70;99.90;;;;;;5033091;28;20112;-70
2022/02/18 01:35:55;;;;;;;57.70;6.45;;;4.70;99.90;;;;;;5033119;28;20022;-70
2022/02/18 01:38:21;;;;;;;39.50;6.63;;;4.70;99.90;;;;;;5033103;28;20021;-70
2022/02/18 01:40:47;;;;;;;33.97;5.65;;;4.70;99.90;;;;;;5033364;28;20534;-70
2022/02/18 01:43:13;;;;;;;51.58;6.18;;;4.60;99.90;;;;;;5033279;28;20112;-70
2022/02/18 01:45:38;;;;;;;50.58;5.72;;;4.70;99.90;;;;;;5033036;28;20028;-70
2022/02/18 01:48:04;;;;;;;56.67;7.60;;;4.70;99.90;;;;;;5033012;28;20048;-70
2022/02/18 01:50:30;;;;;;;47.47;5.55;;;4.70;99.90;;;;;;5033012;28;20029;-70
2022/02/18 01:52:57;;;;;;;56.05;5.65;;;4.70;99.90;;;;;;5033531;28;20099;-71
2022/02/18 01:55:24;;;;;;;55.63;7.45;;;4.70;99.90;;;;;;5033095;28;20460;-71
2022/02/18 01:57:55;;;;;;;51.90;6.47;;;4.70;99.90;;;;;;5032975;28;20033;-70
2022/02/18 02:00:24;;;;;;;42.17;5.47;;;4.70;99.90;;;;;;5032891;28;20028;-70
2022/02/18 02:02:50;;;;;;;43.25;7.05;;;4.70;99.90;;;;;;5032754;28;20018;-70
2022/02/18 02:05:16;;;;;;;43.85;6.82;;;4.70;99.90;;;;;;5033046;28;20017;-70
2022/02/18 02:07:43;;;;;;;45.08;5.88;;;4.70;99.90;;;;;;5033627;28;20385;-70
2022/02/18 02:10:13;;;;;;;50.53;8.60;;;4.70;99.90;;;;;;5036793;28;20416;-70
2022/02/18 02:12:50;;;;;;;55.55;7.47;;;4.70;99.90;;;;;;5036715;28;20029;-70
2022/02/18 02:15:17;;;;;;;63.28;7.45;;;4.70;99.90;;;;;;5036559;28;20017;-70
2022/02/18 02:17:43;;;;;;;54.55;7.00;;;4.80;99.90;;;;;;5036346;28;20028;-70
2022/02/18 02:20:10;;;;;;;46.42;7.30;;;4.80;99.90;;;;;;5036275;28;20030;-70
2022/02/18 02:22:36;;;;;;;50.15;6.35;;;4.80;99.90;;;;;;5036113;28;20036;-70
2022/02/18 02:25:03;;;;;;;63.90;6.93;;;4.70;99.90;;;;;;5036143;28;20370;-70
2022/02/18 02:27:30;;;;;;;73.47;8.23;;;4.70;99.90;;;;;;5036123;28;20024;-70
2022/02/18 02:29:55;;;;;;;56.83;7.20;;;4.70;99.90;;;;;;5018673;28;20030;-70
2022/02/18 02:32:21;;;;;;;69.28;6.63;;;4.60;99.90;;;;;;5036245;28;20720;-70
2022/02/18 02:34:47;;;;;;;57.58;6.97;;;4.70;99.90;;;;;;5036210;28;20061;-71
2022/02/18 02:37:13;;;;;;;49.22;6.72;;;4.70;99.90;;;;;;5035977;28;20025;-70
2022/02/18 02:39:38;;;;;;;55.05;7.93;;;4.70;99.90;;;;;;5036132;28;20022;-70
2022/02/18 02:42:06;;;;;;;55.33;7.80;;;4.80;99.90;;;;;;5035791;28;20052;-70
2022/02/18 02:44:33;;;;;;;67.82;6.70;;;4.80;99.90;;;;;;5035637;28;20033;-70
2022/02/18 02:46:58;;;;;;;43.35;6.20;;;4.70;99.90;;;;;;5035746;28;20405;-70
2022/02/18 02:49:24;;;;;;;39.65;6.15;;;4.80;99.90;;;;;;5036005;28;20014;-70
2022/02/18 02:51:50;;;;;;;47.28;6.40;;;4.80;99.90;;;;;;5036094;28;20033;-70
2022/02/18 02:54:16;;;;;;;32.50;6.35;;;4.80;99.90;;;;;;5091970;22;20064;-70
2022/02/18 02:56:42;;;;;;;50.80;6.20;;;4.80;99.90;;;;;;5055992;28;20041;-70
2022/02/18 02:59:08;;;;;;;59.03;6.50;;;4.70;99.90;;;;;;5055445;28;20092;-70
2022/02/18 03:01:34;;;;;;;58.17;6.95;;;4.70;99.90;;;;;;5055603;28;20029;-70
2022/02/18 03:03:59;;;;;;;67.00;6.82;;;4.70;99.90;;;;;;5055309;28;20057;-70
2022/02/18 03:06:26;;;;;;;67.72;8.02;;;4.70;99.90;;;;;;5055123;28;20029;-70
2022/02/18 03:08:51;;;;;;;67.18;7.65;;;4.70;99.90;;;;;;5055371;28;20124;-71
2022/02/18 03:11:17;;;;;;;74.85;8.70;;;4.70;99.90;;;;;;5055304;28;20035;-71
2022/02/18 03:13:49;;;;;;;58.45;6.93;;;4.80;99.90;;;;;;5055739;28;20099;-71
2022/02/18 03:16:16;;;;;;;52.45;7.20;;;4.80;99.90;;;;;;5055055;28;20028;-71
2022/02/18 03:18:43;;;;;;;53.45;6.68;;;4.70;99.90;;;;;;5054752;28;20041;-71
2022/02/18 03:21:08;;;;;;;56.38;6.90;;;4.80;99.90;;;;;;5054478;28;20033;-71
2022/02/18 03:23:36;;;;;;;70.05;10.65;;;4.80;99.90;;;;;;5054972;28;20210;-71
2022/02/18 03:26:01;;;;;;;70.85;6.88;;;4.80;99.90;;;;;;5054899;28;20025;-71
2022/02/18 03:28:27;;;;;;;53.95;8.02;;;4.80;99.90;;;;;;5054809;28;20036;-71
2022/02/18 03:30:53;;;;;;;56.25;7.35;;;4.80;99.90;;;;;;5054895;28;20025;-71
2022/02/18 03:33:19;;;;;;;61.90;6.75;;;4.80;99.90;;;;;;5055112;28;20032;-70
2022/02/18 03:35:45;;;;;;;58.13;6.60;;;4.70;99.90;;;;;;5054685;28;20070;-70
2022/02/18 03:38:10;;;;;;;54.17;8.02;;;4.80;99.90;;;;;;5054683;28;20074;-70
2022/02/18 03:40:37;;;;;;;75.20;8.95;;;4.80;99.90;;;;;;5054587;28;20461;-70
2022/02/18 03:43:03;;;;;;;80.05;7.28;;;4.80;99.90;;;;;;5054538;28;20040;-70
2022/02/18 03:45:29;;;;;;;56.20;6.25;;;4.80;99.90;;;;;;5054518;28;20025;-70
2022/02/18 03:47:55;;;;;;;47.83;6.45;;;4.80;99.90;;;;;;5054503;28;20021;-71
2022/02/18 03:50:21;;;;;;;54.28;7.35;;;4.90;99.90;;;;;;5054485;28;20036;-71
2022/02/18 03:52:46;;;;;;;54.45;7.68;;;4.80;99.90;;;;;;5054449;28;20025;-71
2022/02/18 03:55:12;;;;;;;63.63;10.48;;;4.90;99.90;;;;;;5054182;28;20551;-71
2022/02/18 03:57:38;;;;;;;55.83;8.70;;;4.90;99.90;;;;;;5054353;28;20400;-71
2022/02/18 04:00:05;;;;;;;77.35;8.88;;;4.80;99.90;;;;;;5054264;28;20028;-71
2022/02/18 04:02:31;;;;;;;61.97;8.32;;;4.80;99.90;;;;;;5054245;28;20027;-71
2022/02/18 04:04:56;;;;;;;79.72;9.00;;;4.80;99.90;;;;;;5054032;28;20100;-71
2022/02/18 04:07:22;;;;;;;55.03;7.13;;;4.80;99.90;;;;;;5054133;28;20033;-71
2022/02/18 04:09:47;;;;;;;77.30;7.60;;;4.80;99.90;;;;;;5054050;28;20029;-71
2022/02/18 04:12:13;;;;;;;48.60;6.80;;;4.80;99.90;;;;;;5054019;28;20025;-71
2022/02/18 04:14:39;;;;;;;70.50;8.57;;;4.70;99.90;;;;;;5053973;28;20029;-71
2022/02/18 04:17:04;;;;;;;69.70;8.68;;;4.70;99.90;;;;;;5053933;28;20029;-71
2022/02/18 04:19:30;;;;;;;57.75;6.75;;;4.70;99.90;;;;;;5053946;28;20067;-71
2022/02/18 04:21:56;;;;;;;64.05;8.07;;;4.70;99.90;;;;;;5053890;28;20431;-71
2022/02/18 04:24:21;;;;;;;48.95;6.50;;;4.80;99.90;;;;;;5053699;28;20055;-71
2022/02/18 04:26:47;;;;;;;70.05;7.82;;;4.90;99.90;;;;;;5054044;28;20029;-71
2022/02/18 04:29:13;;;;;;;65.22;6.88;;;4.80;99.90;;;;;;5053805;28;20017;-71
2022/02/18 04:31:38;;;;;;;67.63;7.57;;;4.80;99.90;;;;;;5053569;28;20389;-71
2022/02/18 04:34:04;;;;;;;67.35;7.82;;;4.80;99.90;;;;;;5053578;28;20388;-71
2022/02/18 04:36:29;;;;;;;73.88;7.65;;;4.90;99.90;;;;;;5053961;28;20040;-71
2022/02/18 04:38:55;;;;;;;53.40;7.60;;;4.80;99.90;;;;;;5035762;28;20028;-71
2022/02/18 04:41:22;;;;;;;65.07;8.32;;;4.80;99.90;;;;;;5053618;28;20021;-71
2022/02/18 04:43:47;;;;;;;56.00;7.60;;;4.90;99.90;;;;;;5053790;28;20029;-71
2022/02/18 04:46:13;;;;;;;54.13;6.97;;;4.90;99.90;;;;;;5053435;28;20086;-71
2022/02/18 04:48:38;;;;;;;52.05;6.25;;;4.90;99.90;;;;;;5035626;28;20384;-71
2022/02/18 04:51:04;;;;;;;70.75;7.75;;;4.90;99.90;;;;;;5053471;28;20029;-71
2022/02/18 04:53:30;;;;;;;69.03;10.07;;;4.90;99.90;;;;;;5053727;28;20112;-71
2022/02/18 04:55:55;;;;;;;77.95;7.68;;;4.90;99.90;;;;;;5053224;28;20052;-71
2022/02/18 04:58:21;;;;;;;64.35;7.35;;;4.90;99.90;;;;;;5053384;28;20110;-71
2022/02/18 05:00:47;;;;;;;69.72;8.30;;;4.90;99.90;;;;;;5053629;28;20047;-71
2022/02/18 05:03:12;;;;;;;75.22;10.15;;;4.90;99.90;;;;;;5053270;28;20029;-71
2022/02/18 05:05:38;;;;;;;86.20;10.43;;;5.00;99.90;;;;;;5053141;28;20469;-71
2022/02/18 05:08:04;;;;;;;57.78;7.13;;;4.90;99.90;;;;;;5053759;28;20021;-71
2022/02/18 05:10:29;;;;;;;71.82;9.02;;;5.00;99.90;;;;;;5053884;28;20059;-71
2022/02/18 05:12:55;;;;;;;70.95;9.98;;;5.00;99.90;;;;;;5053231;28;20118;-71
2022/02/18 05:15:20;;;;;;;70.47;9.43;;;4.90;99.90;;;;;;5053093;28;20024;-71
2022/02/18 05:17:48;;;;;;;94.30;8.57;;;5.00;99.90;;;;;;5053447;28;20055;-71
2022/02/18 05:20:18;;;;;;;77.22;9.75;;;4.90;99.90;;;;;;5053147;28;20021;-71
2022/02/18 05:22:44;;;;;;;56.55;6.55;;;4.90;99.90;;;;;;5053608;28;20049;-71
2022/02/18 05:25:11;;;;;;;71.03;8.10;;;4.90;99.90;;;;;;5053021;28;20025;-71
2022/02/18 05:27:36;;;;;;;59.03;8.43;;;4.90;99.90;;;;;;5053366;28;20044;-71
2022/02/18 05:30:03;;;;;;;68.18;8.05;;;4.90;99.90;;;;;;5053332;28;20465;-71
2022/02/18 05:32:29;;;;;;;48.85;6.95;;;4.90;99.90;;;;;;5052992;28;20025;-71
2022/02/18 05:34:54;;;;;;;57.85;6.47;;;4.80;99.90;;;;;;5052968;28;20040;-71
2022/02/18 05:37:20;;;;;;;57.05;6.43;;;4.90;99.90;;;;;;5052981;28;20028;-71
2022/02/18 05:39:47;;;;;;;46.20;6.50;;;4.90;99.90;;;;;;5036075;28;20017;-71
2022/02/18 05:42:13;;;;;;;68.97;8.50;;;5.00;99.90;;;;;;5052984;28;20024;-71
2022/02/18 05:44:38;;;;;;;60.15;9.60;;;5.00;99.90;;;;;;5056910;28;20469;-71
2022/02/18 05:47:04;;;;;;;54.40;6.70;;;5.00;99.90;;;;;;5057073;28;20040;-71
2022/02/18 05:49:30;;;;;;;64.47;6.70;;;5.00;99.90;;;;;;5056749;28;20033;-71
2022/02/18 05:51:57;;;;;;;46.85;5.93;;;5.00;99.90;;;;;;5056725;28;20013;-70
2022/02/18 05:54:22;;;;;;;66.00;6.38;;;5.00;99.90;;;;;;5056778;28;20069;-70
2022/02/18 05:56:50;;;;;;;51.13;6.35;;;5.00;99.90;;;;;;5038813;28;20118;-70
2022/02/18 05:59:16;;;;;;;51.20;5.82;;;5.00;99.90;;;;;;5056559;28;20032;-70
2022/02/18 06:01:44;;;;;;;68.40;8.38;;;5.00;99.90;;;;;;5056511;28;20440;-70
2022/02/18 06:04:13;;;;;;;46.60;5.82;;;5.00;99.90;;;;;;5056591;28;20021;-70
2022/02/18 06:06:40;;;;;;;57.92;6.32;;;5.00;99.90;;;;;;5056425;28;20021;-70
2022/02/18 06:09:06;;;;;;;48.50;6.72;;;5.00;99.90;;;;;;5056367;28;20088;-70
2022/02/18 06:11:32;;;;;;;60.47;6.15;;;5.00;99.90;;;;;;5056376;28;20013;-70
2022/02/18 06:13:57;;;;;;;48.03;6.65;;;5.00;99.90;;;;;;5056583;28;20027;-70
2022/02/18 06:16:23;;;;;;;51.35;5.85;;;5.00;99.90;;;;;;5056185;28;20032;-71
2022/02/18 06:18:49;;;;;;;52.67;6.32;;;5.00;99.90;;;;;;5056191;28;20397;-71
2022/02/18 06:21:14;;;;;;;56.60;6.93;;;5.00;99.90;;;;;;5056172;28;20029;-70
2022/02/18 06:23:40;;;;;;;54.03;6.32;;;5.00;99.90;;;;;;5056330;28;20029;-70
2022/02/18 06:26:06;;;;;;;60.00;6.10;;;5.00;99.90;;;;;;5055968;28;20025;-70
2022/02/18 06:28:31;;;;;;;44.28;5.30;;;5.00;99.90;;;;;;5056305;28;20488;-70
2022/02/18 06:30:57;;;;;;;57.92;6.63;;;5.00;99.90;;;;;;5056015;28;20074;-70
2022/02/18 06:33:22;;;;;;;53.53;7.30;;;5.00;99.90;;;;;;5056231;28;20060;-70
2022/02/18 06:35:48;;;;;;;72.60;6.97;;;4.90;99.90;;;;;;5055796;28;20121;-70
2022/02/18 06:38:13;;;;;;;46.97;6.15;;;4.90;99.90;;;;;;5055915;28;20044;-70
2022/02/18 06:40:39;;;;;;;53.33;6.88;;;4.90;99.90;;;;;;5056119;28;20029;-70
2022/02/18 06:43:06;;;;;;;62.85;6.63;;;4.80;99.90;;;;;;5055716;28;20415;-70
2022/02/18 06:45:31;;;;;;;51.22;7.97;;;4.80;99.90;;;;;;5055699;28;20025;-70
2022/02/18 06:47:57;;;;;;;56.67;6.20;;;4.80;99.90;;;;;;5055692;28;20025;-70
2022/02/18 06:50:22;;;;;;;46.55;6.03;;;4.80;99.90;;;;;;5055885;28;20052;-70
2022/02/18 06:52:48;;;;;;;73.60;7.93;;;4.80;99.90;;;;;;5055598;28;20056;-70
2022/02/18 06:55:15;;;;;;;42.65;5.95;;;4.80;99.90;;;;;;5054025;28;20104;-70
2022/02/18 06:57:45;;;;;;;45.42;6.78;;;4.80;99.90;;;;;;5055483;28;20053;-70
2022/02/18 07:00:13;;;;;;;82.72;7.88;;;4.80;99.90;;;;;;5055573;28;20070;-70
2022/02/18 07:02:39;;;;;;;71.75;8.30;;;4.80;99.90;;;;;;5055725;28;20021;-70
2022/02/18 07:05:09;;;;;;;62.75;5.80;;;4.80;99.90;;;;;;5055222;28;20021;-70
2022/02/18 07:07:35;;;;;;;49.38;7.05;;;4.80;99.90;;;;;;5055587;28;20025;-70
2022/02/18 07:10:06;;;;;;;46.40;6.28;;;4.80;99.90;;;;;;5055261;28;20055;-70
2022/02/18 07:12:32;;;;;;;35.17;5.32;;;4.80;99.90;;;;;;5055168;28;20021;-70
2022/02/18 07:14:58;;;;;;;45.83;6.35;;;4.80;99.90;;;;;;5055239;28;20043;-70
2022/02/18 07:17:25;;;;;;;47.28;4.97;;;4.80;99.90;;;;;;5055125;28;20029;-70
2022/02/18 07:19:51;;;;;;;57.13;6.05;;;4.80;99.90;;;;;;5055098;28;20035;-70
2022/02/18 07:22:17;;;;;;;41.97;5.40;;;4.70;99.90;;;;;;5055033;28;20025;-70
2022/02/18 07:24:44;;;;;;;53.65;6.45;;;4.70;99.90;;;;;;5054812;28;20128;-70
2022/02/18 07:27:10;;;;;;;45.03;5.82;;;4.60;99.90;;;;;;5054964;28;20020;-70
2022/02/18 07:29:35;;;;;;;41.95;6.30;;;4.60;99.90;;;;;;5055158;28;20087;-70
2022/02/18 07:32:01;;;;;;;63.70;7.38;;;4.70;99.90;;;;;;5055174;28;20057;-70
2022/02/18 07:34:27;;;;;;;65.68;8.70;;;4.80;99.90;;;;;;5055193;28;20078;-70
2022/02/18 07:36:52;;;;;;;60.75;6.78;;;4.80;99.90;;;;;;5055281;28;20025;-70
2022/02/18 07:39:18;;;;;;;39.88;5.40;;;4.80;99.90;;;;;;5054703;28;20032;-70
2022/02/18 07:41:43;;;;;;;47.53;5.80;;;4.90;99.90;;;;;;5054688;28;20040;-70
2022/02/18 07:44:09;;;;;;;50.50;5.30;;;4.90;99.90;;;;;;5054379;28;20025;-70
2022/02/18 07:46:35;;;;;;;46.05;6.95;;;4.90;99.90;;;;;;5054883;28;20025;-70
2022/02/18 07:49:00;;;;;;;56.88;6.85;;;4.90;99.90;;;;;;5054785;28;20029;-70
2022/02/18 07:51:26;;;;;;;60.13;7.10;;;4.90;99.90;;;;;;5054433;28;20025;-70
2022/02/18 07:53:51;;;;;;;64.95;7.65;;;4.90;99.90;;;;;;5036576;28;20029;-70
2022/02/18 07:56:17;;;;;;;68.28;7.05;;;4.90;99.90;;;;;;5054198;28;20416;-71
2022/02/18 07:58:43;;;;;;;40.90;6.07;;;4.90;99.90;;;;;;5054458;28;20021;-71
2022/02/18 08:01:14;;;;;;;63.15;7.80;;;4.90;99.90;;;;;;5054327;28;20033;-71
2022/02/18 08:03:40;;;;;;;65.80;7.72;;;4.90;99.90;;;;;;5036326;28;20029;-71
2022/02/18 08:06:06;;;;;;;72.53;7.32;;;4.90;99.90;;;;;;5053649;28;20453;-71
2022/02/18 08:08:34;;;;;;;66.50;8.15;;;4.80;99.90;;;;;;5054297;28;20025;-70
2022/02/18 08:10:59;;;;;;;54.13;7.70;;;4.80;99.90;;;;;;5054083;28;20055;-70
2022/02/18 08:13:25;;;;;;;60.42;6.05;;;4.80;99.90;;;;;;5054068;28;20518;-70
2022/02/18 08:15:51;;;;;;;55.75;5.32;;;4.70;99.90;;;;;;5054042;28;20029;-70
2022/02/18 08:18:19;;;;;;;61.28;5.95;;;4.70;99.90;;;;;;5053936;28;20072;-70
2022/02/18 08:20:46;;;;;;;38.67;5.65;;;4.70;99.90;;;;;;5054258;28;20017;-70
2022/02/18 08:23:11;;;;;;;54.58;5.43;;;4.70;99.90;;;;;;5053784;28;20029;-70
2022/02/18 08:25:37;;;;;;;30.02;5.00;;;4.60;99.90;;;;;;5053748;28;20036;-71
2022/02/18 08:28:03;;;;;;;42.15;4.97;;;4.60;99.90;;;;;;5053764;28;20021;-71
2022/02/18 08:30:29;;;;;;;38.03;5.47;;;4.60;99.90;;;;;;5054034;28;20074;-70
2022/02/18 08:32:54;;;;;;;39.50;5.25;;;4.60;99.90;;;;;;5054230;28;20029;-70
2022/02/18 08:35:20;;;;;;;28.67;5.53;;;4.60;99.90;;;;;;5053655;28;20100;-70
2022/02/18 08:37:45;;;;;;;31.88;4.88;;;4.50;99.90;;;;;;5053625;28;20024;-70
2022/02/18 08:40:11;;;;;;;43.25;6.60;;;4.60;99.90;;;;;;5053869;28;20025;-70
2022/02/18 08:42:37;;;;;;;48.75;5.13;;;4.70;99.90;;;;;;5053643;28;20469;-70
2022/02/18 08:45:03;;;;;;;41.13;4.95;;;4.60;99.90;;;;;;5035542;28;20070;-70
2022/02/18 08:47:29;;;;;;;44.92;6.03;;;4.60;99.90;;;;;;5053495;28;20029;-70
2022/02/18 08:49:55;;;;;;;40.45;5.88;;;4.60;99.90;;;;;;5053415;28;20021;-70
2022/02/18 08:52:20;;;;;;;31.25;4.45;;;4.70;99.90;;;;;;5053835;28;20032;-70
2022/02/18 08:54:46;;;;;;;35.33;6.10;;;4.70;99.90;;;;;;5053872;28;20037;-70
2022/02/18 08:57:12;;;;;;;34.75;5.00;;;4.70;99.90;;;;;;5053773;28;20057;-71
2022/02/18 08:59:39;;;;;;;37.28;4.43;;;4.70;99.90;;;;;;5053767;28;20055;-71
2022/02/18 09:02:05;;;;;;;37.97;4.72;;;4.70;99.90;;;;;;5053487;28;20436;-71
2022/02/18 09:04:30;;;;;;;25.95;4.40;;;4.70;99.90;;;;;;5053364;28;20057;-71
2022/02/18 09:06:59;;;;;;;35.42;5.00;;;4.70;99.90;;;;;;5053738;28;20461;-71
2022/02/18 09:09:24;;;;;;;28.35;4.35;;;4.70;99.90;;;;;;5053334;28;20028;-71
2022/02/18 09:11:50;;;;;;;34.67;4.47;;;4.70;99.90;;;;;;5053492;28;20021;-71
2022/02/18 09:14:16;;;;;;;18.60;3.63;;;4.70;99.90;;;;;;5053570;28;20052;-71
2022/02/18 09:16:43;;;;;;;38.83;4.70;;;4.70;99.90;;;;;;5053495;28;20516;-72
2022/02/18 09:19:08;;;;;;;31.83;4.63;;;4.70;99.90;;;;;;5056883;28;20029;-71
2022/02/18 09:21:34;;;;;;;26.63;4.53;;;4.70;99.90;;;;;;5057341;28;20031;-70
2022/02/18 09:24:00;;;;;;;23.95;3.72;;;4.70;99.90;;;;;;5057262;28;20039;-71
2022/02/18 09:26:26;;;;;;;24.23;4.80;;;4.70;99.90;;;;;;5057209;28;20029;-70
2022/02/18 09:28:53;;;;;;;28.15;4.35;;;4.70;99.90;;;;;;5057487;28;20053;-70
2022/02/18 09:31:19;;;;;;;31.30;4.22;;;4.70;99.90;;;;;;5057452;28;20366;-70
2022/02/18 09:33:44;;;;;;;20.83;4.55;;;4.70;99.90;;;;;;5057154;28;20036;-70
2022/02/18 09:36:10;;;;;;;14.90;3.17;;;4.70;99.90;;;;;;5057007;28;20392;-71
2022/02/18 09:38:36;;;;;;;24.63;3.42;;;4.70;99.90;;;;;;5057303;28;20025;-71
2022/02/18 09:41:06;;;;;;;19.80;3.25;;;4.70;99.90;;;;;;5057034;28;20388;-71
2022/02/18 09:43:33;;;;;;;23.63;4.03;;;4.70;99.90;;;;;;5057211;28;20056;-70
2022/02/18 09:46:01;;;;;;;29.08;4.63;;;4.70;99.90;;;;;;5056911;28;20138;-70
2022/02/18 09:48:27;;;;;;;32.20;4.63;;;4.70;99.90;;;;;;5056891;28;20027;-70
2022/02/18 09:50:53;;;;;;;29.60;4.55;;;4.70;99.90;;;;;;5057528;28;20430;-71
2022/02/18 09:53:20;;;;;;;22.33;3.53;;;4.60;99.90;;;;;;5057379;28;20053;-71
2022/02/18 09:55:47;;;;;;;35.42;4.75;;;4.60;99.90;;;;;;5056826;28;20055;-71
2022/02/18 09:58:16;;;;;;;27.45;4.53;;;4.60;99.90;;;;;;5057049;28;20033;-71
2022/02/18 10:00:42;;;;;;;37.13;5.55;;;4.70;99.90;;;;;;5038813;28;20457;-71
2022/02/18 10:03:11;;;;;;;29.90;4.70;;;4.70;99.90;;;;;;5056541;28;20071;-71
2022/02/18 10:05:36;;;;;;;45.72;5.63;;;4.70;99.90;;;;;;5056676;28;20488;-71
2022/02/18 10:08:04;;;;;;;21.42;5.32;;;4.70;99.90;;;;;;5056592;28;20029;-71
2022/02/18 10:10:30;;;;;;;35.53;5.78;;;4.70;99.90;;;;;;5056453;28;20021;-71
2022/02/18 10:12:55;;;;;;;37.65;6.00;;;4.70;99.90;;;;;;5057030;28;20052;-71
2022/02/18 10:15:21;;;;;;;27.75;6.38;;;4.70;99.90;;;;;;5056341;28;20024;-71
2022/02/18 10:17:47;;;;;;;30.60;5.95;;;4.70;99.90;;;;;;5056904;28;20492;-70
2022/02/18 10:20:19;;;;;;;36.72;8.68;;;4.70;99.90;;;;;;5056357;28;20447;-71
2022/02/18 10:22:58;;;;;;;24.50;5.75;;;4.60;99.90;;;;;;5056660;28;20464;-71
2022/02/18 10:25:29;;;;;;;36.10;6.88;;;4.60;99.90;;;;;;5056563;28;20033;-71
2022/02/18 10:27:57;;;;;;;44.40;7.45;;;4.60;99.90;;;;;;5038542;28;20380;-71
2022/02/18 10:30:25;;;;;;;40.92;7.50;;;4.60;99.90;;;;;;5056011;28;20167;-71
2022/02/18 10:32:52;;;;;;;30.75;7.38;;;4.60;99.90;;;;;;5056231;28;20020;-71
2022/02/18 10:35:30;;;;;;;31.00;7.57;;;4.60;99.90;;;;;;5056118;28;20025;-71
2022/02/18 10:37:56;;;;;;;29.45;8.18;;;4.60;99.90;;;;;;5056527;28;20461;-71
2022/02/18 10:40:22;;;;;;;39.92;7.40;;;4.60;99.90;;;;;;5056136;28;20086;-71
2022/02/18 10:42:50;;;;;;;37.47;7.28;;;4.60;99.90;;;;;;5056157;28;20024;-71
2022/02/18 10:45:19;;;;;;;29.90;6.97;;;4.60;99.90;;;;;;5056426;28;20104;-71
2022/02/18 10:47:46;;;;;;;20.83;5.80;;;4.60;99.90;;;;;;5038088;28;20021;-71
2022/02/18 10:50:26;;;;;;;29.35;6.20;;;4.60;99.90;;;;;;5055863;28;20388;-71
2022/02/18 10:53:20;;;;;;;28.63;5.90;;;4.60;99.90;;;;;;5056155;28;20091;-71
2022/02/18 10:55:48;;;;;;;;;;;4.50;99.90;;;;;;5056142;28;20032;-71
2022/02/18 10:58:29;;;;;;;16.40;3.65;;;4.50;99.90;;;;;;5055965;28;19908;-71
2022/02/18 11:01:04;;;;;;;12.57;3.60;;;4.50;99.90;;;;;;5056128;28;20025;-71
2022/02/18 11:03:30;;;;;;;22.65;3.42;;;4.40;99.90;;;;;;5055698;28;20388;-71
2022/02/18 11:06:09;;;;;;;12.38;3.38;;;4.40;99.90;;;;;;5055631;28;20028;-71
2022/02/18 11:08:34;;;;;;;26.25;4.70;;;4.50;99.90;;;;;;5055744;28;20492;-71
2022/02/18 11:11:10;;;;;;;11.20;4.00;;;4.40;99.90;;;;;;5055936;28;20029;-71
2022/02/18 11:13:37;;;;;;;20.52;4.00;;;4.50;99.90;;;;;;5056119;28;20496;-71
2022/02/18 11:16:04;;;;;;;9.55;3.42;;;4.40;99.90;;;;;;5055623;28;20032;-71
2022/02/18 11:18:30;;;;;;;15.02;3.67;;;4.50;99.90;;;;;;5055693;28;20037;-71
2022/02/18 11:20:57;;;;;;;25.50;3.95;;;4.50;99.90;;;;;;5056096;28;20021;-71
2022/02/18 11:23:22;;;;;;;19.52;4.57;;;4.50;99.90;;;;;;5055546;28;20029;-71
2022/02/18 11:25:48;;;;;;;16.88;3.53;;;4.50;99.90;;;;;;5055556;28;20051;-71
2022/02/18 11:28:15;;;;;;;15.25;4.60;;;4.50;99.90;;;;;;5055627;28;20473;-71
2022/02/18 11:30:47;;;;;;;10.90;3.40;;;4.50;99.90;;;;;;5055324;28;20376;-71
2022/02/18 11:33:21;;;;;;;18.08;3.95;;;4.40;99.90;;;;;;5055347;28;20152;-71
2022/02/18 11:36:18;;;;;;;13.82;3.75;;;4.40;99.90;;;;;;5037415;28;20392;-71
2022/02/18 11:39:09;;;;;;;24.17;5.00;;;4.40;99.90;;;;;;5055511;28;20021;-71
2022/02/18 11:41:44;;;;;;;18.85;5.07;;;4.40;99.90;;;;;;5054386;28;20542;-71
2022/02/18 11:44:12;;;;;;;20.90;5.47;;;4.40;99.90;;;;;;5055030;28;20036;-71
2022/02/18 11:46:37;;;;;;;23.02;6.00;;;4.40;99.90;;;;;;5055019;28;20025;-71
2022/02/18 11:49:08;;;;;;;24.60;5.97;;;4.40;99.90;;;;;;5055349;28;20055;-71
2022/02/18 11:51:41;;;;;;;24.83;6.07;;;4.40;99.90;;;;;;5055261;28;20068;-72
2022/02/18 11:54:23;;;;;;;33.00;7.55;;;4.30;99.90;;;;;;5055520;28;20086;-71
2022/02/18 11:56:54;;;;;;;22.52;5.15;;;4.30;99.90;;;;;;5054296;28;20044;-71
2022/02/18 11:59:20;;;;;;;24.52;4.55;;;4.30;99.90;;;;;;5036060;28;20025;-71
2022/02/18 12:01:57;;;;;;;14.02;3.95;;;4.20;99.90;;;;;;5053974;28;20029;-71
2022/02/18 12:04:23;;;;;;;22.35;4.72;;;4.20;99.90;;;;;;5053921;28;20025;-71
2022/02/18 12:07:13;;;;;;;8.68;3.60;;;4.20;99.90;;;;;;5053564;28;20028;-71
2022/02/18 12:09:50;;;;;;;8.75;2.92;;;4.10;99.90;;;;;;5053563;28;20400;-71
2022/02/18 12:12:28;;;;;;;18.05;3.33;;;4.10;99.90;;;;;;5053282;28;20064;-71
2022/02/18 12:14:56;;;;;;;9.98;4.47;;;4.00;99.90;;;;;;5053670;28;20029;-71
2022/02/18 12:17:25;;;;;;;12.95;3.13;;;4.10;99.90;;;;;;5053490;28;20028;-71
2022/02/18 12:19:51;;;;;;;17.45;3.50;;;4.00;99.90;;;;;;5053706;28;20071;-71
2022/02/18 12:22:35;;;;;;;10.48;2.60;;;4.00;99.90;;;;;;5053439;28;20108;-71
2022/02/18 12:25:06;;;;;;;10.82;3.38;;;4.10;99.90;;;;;;5053285;28;20155;-71
2022/02/18 12:27:34;;;;;;;10.57;2.92;;;4.00;99.90;;;;;;5053488;28;20039;-71
2022/02/18 12:30:22;;;;;;;8.55;3.38;;;4.00;99.90;;;;;;5053191;28;20020;-71
2022/02/18 12:32:54;;;;;;;16.70;3.65;;;4.10;99.90;;;;;;5053215;28;20028;-71
2022/02/18 12:35:28;;;;;;;9.50;2.78;;;4.10;99.90;;;;;;5053301;28;20473;-71
2022/02/18 12:37:58;;;;;;;11.18;3.60;;;4.20;99.90;;;;;;5053783;28;20350;-71
2022/02/18 12:40:24;;;;;;;9.38;3.05;;;4.20;99.90;;;;;;5053420;28;20122;-71
2022/02/18 12:43:00;;;;;;;9.85;2.80;;;4.20;99.90;;;;;;5053231;28;20021;-71
2022/02/18 12:45:56;;;;;;;17.83;3.67;;;4.30;99.90;;;;;;5052915;28;20047;-71
2022/02/18 12:48:32;;;;;;;13.38;3.42;;;4.30;99.90;;;;;;5052972;28;20017;-71